sensor_id;sensor_type;location;lat;lon;timestamp;temperature;humidity
59651;DHT22;45954;49.768;8.636;2023-07-22T00:01:09;18.90;96.80
59651;DHT22;45954;49.768;8.636;2023-07-22T00:03:35;19.10;96.40
59651;DHT22;45954;49.768;8.636;2023-07-22T00:06:05;19.30;96.30
59651;DHT22;45954;49.768;8.636;2023-07-22T00:08:35;19.30;96.10
59651;DHT22;45954;49.768;8.636;2023-07-22T00:11:03;19.30;96.40
59651;DHT22;45954;49.768;8.636;2023-07-22T00:13:30;19.00;96.20
59651;DHT22;45954;49.768;8.636;2023-07-22T00:15:57;19.10;96.40
59651;DHT22;45954;49.768;8.636;2023-07-22T00:18:25;19.10;96.60
59651;DHT22;45954;49.768;8.636;2023-07-22T00:20:53;19.10;96.30
59651;DHT22;45954;49.768;8.636;2023-07-22T00:23:20;18.90;96.70
59651;DHT22;45954;49.768;8.636;2023-07-22T00:25:47;18.60;97.00
59651;DHT22;45954;49.768;8.636;2023-07-22T00:28:13;18.50;97.20
59651;DHT22;45954;49.768;8.636;2023-07-22T00:30:39;18.60;98.00
59651;DHT22;45954;49.768;8.636;2023-07-22T00:33:05;18.60;97.70
59651;DHT22;45954;49.768;8.636;2023-07-22T00:35:31;18.80;97.90
59651;DHT22;45954;49.768;8.636;2023-07-22T00:37:58;19.00;97.40
59651;DHT22;45954;49.768;8.636;2023-07-22T00:40:24;19.10;97.40
59651;DHT22;45954;49.768;8.636;2023-07-22T00:42:50;19.00;97.30
59651;DHT22;45954;49.768;8.636;2023-07-22T00:45:16;18.90;97.60
59651;DHT22;45954;49.768;8.636;2023-07-22T00:47:42;19.00;97.40
59651;DHT22;45954;49.768;8.636;2023-07-22T00:50:09;18.90;97.70
59651;DHT22;45954;49.768;8.636;2023-07-22T00:52:35;18.60;97.80
59651;DHT22;45954;49.768;8.636;2023-07-22T00:55:02;18.80;97.60
59651;DHT22;45954;49.768;8.636;2023-07-22T00:57:28;18.90;97.30
59651;DHT22;45954;49.768;8.636;2023-07-22T00:59:55;18.70;97.40
59651;DHT22;45954;49.768;8.636;2023-07-22T01:02:24;18.60;97.80
59651;DHT22;45954;49.768;8.636;2023-07-22T01:04:50;18.50;97.80
59651;DHT22;45954;49.768;8.636;2023-07-22T01:07:17;18.20;98.30
59651;DHT22;45954;49.768;8.636;2023-07-22T01:09:44;18.10;98.60
59651;DHT22;45954;49.768;8.636;2023-07-22T01:12:11;18.10;98.60
59651;DHT22;45954;49.768;8.636;2023-07-22T01:14:39;18.20;98.50
59651;DHT22;45954;49.768;8.636;2023-07-22T01:17:08;18.20;98.80
59651;DHT22;45954;49.768;8.636;2023-07-22T01:19:36;18.20;98.60
59651;DHT22;45954;49.768;8.636;2023-07-22T01:22:06;18.20;99.20
59651;DHT22;45954;49.768;8.636;2023-07-22T01:24:38;18.20;98.90
59651;DHT22;45954;49.768;8.636;2023-07-22T01:27:06;18.30;98.40
59651;DHT22;45954;49.768;8.636;2023-07-22T01:29:36;18.20;98.70
59651;DHT22;45954;49.768;8.636;2023-07-22T01:32:02;18.30;98.90
59651;DHT22;45954;49.768;8.636;2023-07-22T01:34:29;18.40;99.00
59651;DHT22;45954;49.768;8.636;2023-07-22T01:36:55;18.30;99.00
59651;DHT22;45954;49.768;8.636;2023-07-22T01:39:21;18.30;99.00
59651;DHT22;45954;49.768;8.636;2023-07-22T01:41:47;18.10;99.10
59651;DHT22;45954;49.768;8.636;2023-07-22T01:44:14;18.20;99.30
59651;DHT22;45954;49.768;8.636;2023-07-22T01:46:41;18.30;99.10
59651;DHT22;45954;49.768;8.636;2023-07-22T01:49:09;18.10;99.40
59651;DHT22;45954;49.768;8.636;2023-07-22T01:51:36;18.20;99.60
59651;DHT22;45954;49.768;8.636;2023-07-22T01:54:13;18.30;99.70
59651;DHT22;45954;49.768;8.636;2023-07-22T01:56:39;18.20;99.90
59651;DHT22;45954;49.768;8.636;2023-07-22T01:59:05;18.20;99.40
59651;DHT22;45954;49.768;8.636;2023-07-22T02:01:32;18.30;99.70
59651;DHT22;45954;49.768;8.636;2023-07-22T02:03:58;18.10;99.50
59651;DHT22;45954;49.768;8.636;2023-07-22T02:06:24;18.10;99.50
59651;DHT22;45954;49.768;8.636;2023-07-22T02:08:51;18.30;99.80
59651;DHT22;45954;49.768;8.636;2023-07-22T02:11:17;18.20;99.50
59651;DHT22;45954;49.768;8.636;2023-07-22T02:13:43;18.40;99.50
59651;DHT22;45954;49.768;8.636;2023-07-22T02:16:09;18.50;99.00
59651;DHT22;45954;49.768;8.636;2023-07-22T02:18:37;18.20;99.10
59651;DHT22;45954;49.768;8.636;2023-07-22T02:21:03;18.00;99.50
59651;DHT22;45954;49.768;8.636;2023-07-22T02:23:29;18.20;99.40
59651;DHT22;45954;49.768;8.636;2023-07-22T02:25:55;18.40;99.00
59651;DHT22;45954;49.768;8.636;2023-07-22T02:28:21;18.60;98.80
59651;DHT22;45954;49.768;8.636;2023-07-22T02:30:51;18.50;98.70
59651;DHT22;45954;49.768;8.636;2023-07-22T02:33:21;18.50;98.80
59651;DHT22;45954;49.768;8.636;2023-07-22T02:35:48;18.50;99.00
59651;DHT22;45954;49.768;8.636;2023-07-22T02:38:14;18.30;99.30
59651;DHT22;45954;49.768;8.636;2023-07-22T02:40:41;18.10;99.70
59651;DHT22;45954;49.768;8.636;2023-07-22T02:43:07;18.10;99.70
59651;DHT22;45954;49.768;8.636;2023-07-22T02:45:33;18.10;99.70
59651;DHT22;45954;49.768;8.636;2023-07-22T02:48:00;18.00;99.50
59651;DHT22;45954;49.768;8.636;2023-07-22T02:50:26;18.10;99.40
59651;DHT22;45954;49.768;8.636;2023-07-22T02:52:52;18.10;99.50
59651;DHT22;45954;49.768;8.636;2023-07-22T02:55:18;18.20;99.10
59651;DHT22;45954;49.768;8.636;2023-07-22T02:57:46;18.20;99.20
59651;DHT22;45954;49.768;8.636;2023-07-22T03:00:14;18.10;99.40
59651;DHT22;45954;49.768;8.636;2023-07-22T03:02:53;18.00;99.80
59651;DHT22;45954;49.768;8.636;2023-07-22T03:05:27;18.00;99.90
59651;DHT22;45954;49.768;8.636;2023-07-22T03:07:54;18.20;99.70
59651;DHT22;45954;49.768;8.636;2023-07-22T03:10:23;18.10;99.90
59651;DHT22;45954;49.768;8.636;2023-07-22T03:12:51;18.10;99.80
59651;DHT22;45954;49.768;8.636;2023-07-22T03:15:22;18.10;99.90
59651;DHT22;45954;49.768;8.636;2023-07-22T03:17:48;18.10;99.80
59651;DHT22;45954;49.768;8.636;2023-07-22T03:20:15;18.20;99.70
59651;DHT22;45954;49.768;8.636;2023-07-22T03:22:45;18.30;99.60
59651;DHT22;45954;49.768;8.636;2023-07-22T03:25:13;18.40;99.30
59651;DHT22;45954;49.768;8.636;2023-07-22T03:27:39;18.50;99.50
59651;DHT22;45954;49.768;8.636;2023-07-22T03:30:15;18.60;99.20
59651;DHT22;45954;49.768;8.636;2023-07-22T03:32:46;18.50;98.80
59651;DHT22;45954;49.768;8.636;2023-07-22T03:35:13;18.30;98.90
59651;DHT22;45954;49.768;8.636;2023-07-22T03:37:40;17.60;99.90
59651;DHT22;45954;49.768;8.636;2023-07-22T03:40:07;16.80;99.90
59651;DHT22;45954;49.768;8.636;2023-07-22T03:43:01;16.70;99.90
59651;DHT22;45954;49.768;8.636;2023-07-22T03:45:27;17.00;99.90
59651;DHT22;45954;49.768;8.636;2023-07-22T03:47:59;17.30;99.90
59651;DHT22;45954;49.768;8.636;2023-07-22T03:50:27;17.30;99.90
59651;DHT22;45954;49.768;8.636;2023-07-22T03:52:53;17.30;99.90
59651;DHT22;45954;49.768;8.636;2023-07-22T03:55:19;17.80;99.90
59651;DHT22;45954;49.768;8.636;2023-07-22T03:57:45;17.90;99.90
59651;DHT22;45954;49.768;8.636;2023-07-22T04:00:11;17.90;99.90
59651;DHT22;45954;49.768;8.636;2023-07-22T04:02:39;17.30;99.90
59651;DHT22;45954;49.768;8.636;2023-07-22T04:05:05;17.40;99.90
59651;DHT22;45954;49.768;8.636;2023-07-22T04:07:31;17.40;99.90
59651;DHT22;45954;49.768;8.636;2023-07-22T04:09:57;17.40;99.90
59651;DHT22;45954;49.768;8.636;2023-07-22T04:12:25;17.60;99.90
59651;DHT22;45954;49.768;8.636;2023-07-22T04:14:51;17.50;99.90
59651;DHT22;45954;49.768;8.636;2023-07-22T04:17:17;17.50;99.90
59651;DHT22;45954;49.768;8.636;2023-07-22T04:19:43;17.40;99.90
59651;DHT22;45954;49.768;8.636;2023-07-22T04:22:08;17.40;99.90
59651;DHT22;45954;49.768;8.636;2023-07-22T04:24:35;17.30;99.90
59651;DHT22;45954;49.768;8.636;2023-07-22T04:27:01;17.40;99.90
59651;DHT22;45954;49.768;8.636;2023-07-22T04:29:27;17.50;99.90
59651;DHT22;45954;49.768;8.636;2023-07-22T04:32:01;17.60;99.90
59651;DHT22;45954;49.768;8.636;2023-07-22T04:34:31;17.30;99.90
59651;DHT22;45954;49.768;8.636;2023-07-22T04:36:57;17.30;99.90
59651;DHT22;45954;49.768;8.636;2023-07-22T04:39:23;17.40;99.90
59651;DHT22;45954;49.768;8.636;2023-07-22T04:41:50;17.60;99.90
59651;DHT22;45954;49.768;8.636;2023-07-22T04:44:17;17.50;99.90
59651;DHT22;45954;49.768;8.636;2023-07-22T04:46:43;17.60;99.90
59651;DHT22;45954;49.768;8.636;2023-07-22T04:49:09;17.70;99.90
59651;DHT22;45954;49.768;8.636;2023-07-22T04:51:35;17.70;99.90
59651;DHT22;45954;49.768;8.636;2023-07-22T04:54:01;17.90;99.90
59651;DHT22;45954;49.768;8.636;2023-07-22T04:56:30;18.10;99.90
59651;DHT22;45954;49.768;8.636;2023-07-22T04:58:56;18.10;99.90
59651;DHT22;45954;49.768;8.636;2023-07-22T05:01:22;18.30;99.90
59651;DHT22;45954;49.768;8.636;2023-07-22T05:03:48;18.60;99.90
59651;DHT22;45954;49.768;8.636;2023-07-22T05:06:14;18.70;99.90
59651;DHT22;45954;49.768;8.636;2023-07-22T05:08:39;18.60;99.90
59651;DHT22;45954;49.768;8.636;2023-07-22T05:11:07;18.80;99.90
59651;DHT22;45954;49.768;8.636;2023-07-22T05:13:33;18.80;99.80
59651;DHT22;45954;49.768;8.636;2023-07-22T05:15:59;18.60;99.90
59651;DHT22;45954;49.768;8.636;2023-07-22T05:18:24;18.70;99.90
59651;DHT22;45954;49.768;8.636;2023-07-22T05:20:50;18.50;99.90
59651;DHT22;45954;49.768;8.636;2023-07-22T05:23:16;18.40;99.90
59651;DHT22;45954;49.768;8.636;2023-07-22T05:25:42;18.20;99.90
59651;DHT22;45954;49.768;8.636;2023-07-22T05:28:08;18.20;99.90
59651;DHT22;45954;49.768;8.636;2023-07-22T05:30:33;18.20;99.90
59651;DHT22;45954;49.768;8.636;2023-07-22T05:32:59;18.50;99.90
59651;DHT22;45954;49.768;8.636;2023-07-22T05:35:25;18.70;99.90
59651;DHT22;45954;49.768;8.636;2023-07-22T05:37:51;18.80;99.90
59651;DHT22;45954;49.768;8.636;2023-07-22T05:40:17;19.30;99.40
59651;DHT22;45954;49.768;8.636;2023-07-22T05:42:43;19.40;99.30
59651;DHT22;45954;49.768;8.636;2023-07-22T05:45:09;19.60;99.00
59651;DHT22;45954;49.768;8.636;2023-07-22T05:47:39;19.60;98.40
59651;DHT22;45954;49.768;8.636;2023-07-22T05:50:05;19.60;98.70
59651;DHT22;45954;49.768;8.636;2023-07-22T05:52:32;19.80;98.40
59651;DHT22;45954;49.768;8.636;2023-07-22T05:54:58;19.70;97.70
59651;DHT22;45954;49.768;8.636;2023-07-22T05:57:24;19.60;98.00
59651;DHT22;45954;49.768;8.636;2023-07-22T05:59:49;19.60;98.00
59651;DHT22;45954;49.768;8.636;2023-07-22T06:02:17;19.80;97.90
59651;DHT22;45954;49.768;8.636;2023-07-22T06:04:44;19.90;98.00
59651;DHT22;45954;49.768;8.636;2023-07-22T06:07:09;19.90;97.80
59651;DHT22;45954;49.768;8.636;2023-07-22T06:09:35;20.10;97.90
59651;DHT22;45954;49.768;8.636;2023-07-22T06:12:01;20.00;97.90
59651;DHT22;45954;49.768;8.636;2023-07-22T06:14:27;19.90;98.00
59651;DHT22;45954;49.768;8.636;2023-07-22T06:16:53;19.90;97.90
59651;DHT22;45954;49.768;8.636;2023-07-22T06:19:19;19.60;97.60
59651;DHT22;45954;49.768;8.636;2023-07-22T06:21:45;19.50;98.20
59651;DHT22;45954;49.768;8.636;2023-07-22T06:24:10;19.60;98.30
59651;DHT22;45954;49.768;8.636;2023-07-22T06:26:36;19.80;98.20
59651;DHT22;45954;49.768;8.636;2023-07-22T06:29:02;20.10;98.20
59651;DHT22;45954;49.768;8.636;2023-07-22T06:31:28;20.20;97.60
59651;DHT22;45954;49.768;8.636;2023-07-22T06:33:59;20.10;98.10
59651;DHT22;45954;49.768;8.636;2023-07-22T06:36:28;19.80;98.00
59651;DHT22;45954;49.768;8.636;2023-07-22T06:38:54;19.80;98.50
59651;DHT22;45954;49.768;8.636;2023-07-22T06:41:20;19.80;98.20
59651;DHT22;45954;49.768;8.636;2023-07-22T06:43:46;19.90;98.40
59651;DHT22;45954;49.768;8.636;2023-07-22T06:46:12;19.90;98.30
59651;DHT22;45954;49.768;8.636;2023-07-22T06:48:38;19.90;98.30
59651;DHT22;45954;49.768;8.636;2023-07-22T06:51:03;19.90;98.30
59651;DHT22;45954;49.768;8.636;2023-07-22T06:53:29;19.90;98.50
59651;DHT22;45954;49.768;8.636;2023-07-22T06:55:56;20.00;98.10
59651;DHT22;45954;49.768;8.636;2023-07-22T06:58:22;19.90;97.70
59651;DHT22;45954;49.768;8.636;2023-07-22T07:00:53;19.90;98.00
59651;DHT22;45954;49.768;8.636;2023-07-22T07:03:19;20.00;98.00
59651;DHT22;45954;49.768;8.636;2023-07-22T07:05:53;20.20;97.70
59651;DHT22;45954;49.768;8.636;2023-07-22T07:08:23;20.10;97.80
59651;DHT22;45954;49.768;8.636;2023-07-22T07:10:50;20.30;97.60
59651;DHT22;45954;49.768;8.636;2023-07-22T07:13:17;20.30;97.50
59651;DHT22;45954;49.768;8.636;2023-07-22T07:15:47;20.40;97.50
59651;DHT22;45954;49.768;8.636;2023-07-22T07:18:16;20.50;97.50
59651;DHT22;45954;49.768;8.636;2023-07-22T07:20:43;20.80;97.30
59651;DHT22;45954;49.768;8.636;2023-07-22T07:23:09;20.80;97.30
59651;DHT22;45954;49.768;8.636;2023-07-22T07:25:35;20.80;97.30
59651;DHT22;45954;49.768;8.636;2023-07-22T07:28:00;20.50;97.50
59651;DHT22;45954;49.768;8.636;2023-07-22T07:30:26;20.70;97.50
59651;DHT22;45954;49.768;8.636;2023-07-22T07:32:52;20.70;97.40
59651;DHT22;45954;49.768;8.636;2023-07-22T07:35:18;20.70;97.50
59651;DHT22;45954;49.768;8.636;2023-07-22T07:37:44;20.90;97.30
59651;DHT22;45954;49.768;8.636;2023-07-22T07:40:11;20.80;97.60
59651;DHT22;45954;49.768;8.636;2023-07-22T07:42:37;20.70;97.50
59651;DHT22;45954;49.768;8.636;2023-07-22T07:45:03;20.80;97.30
59651;DHT22;45954;49.768;8.636;2023-07-22T07:47:30;20.70;97.40
59651;DHT22;45954;49.768;8.636;2023-07-22T07:49:56;20.70;97.50
59651;DHT22;45954;49.768;8.636;2023-07-22T07:52:22;20.70;97.70
59651;DHT22;45954;49.768;8.636;2023-07-22T07:54:48;20.90;97.60
59651;DHT22;45954;49.768;8.636;2023-07-22T07:57:13;20.90;97.10
59651;DHT22;45954;49.768;8.636;2023-07-22T07:59:39;20.80;97.20
59651;DHT22;45954;49.768;8.636;2023-07-22T08:02:06;20.90;97.30
59651;DHT22;45954;49.768;8.636;2023-07-22T08:04:35;21.00;97.10
59651;DHT22;45954;49.768;8.636;2023-07-22T08:07:01;21.20;97.10
59651;DHT22;45954;49.768;8.636;2023-07-22T08:09:26;21.30;96.90
59651;DHT22;45954;49.768;8.636;2023-07-22T08:11:52;21.10;97.10
59651;DHT22;45954;49.768;8.636;2023-07-22T08:14:18;21.10;97.40
59651;DHT22;45954;49.768;8.636;2023-07-22T08:16:44;21.10;97.10
59651;DHT22;45954;49.768;8.636;2023-07-22T08:19:10;21.10;96.50
59651;DHT22;45954;49.768;8.636;2023-07-22T08:21:36;21.30;96.30
59651;DHT22;45954;49.768;8.636;2023-07-22T08:24:02;21.60;96.40
59651;DHT22;45954;49.768;8.636;2023-07-22T08:26:28;22.00;96.10
59651;DHT22;45954;49.768;8.636;2023-07-22T08:28:54;21.70;96.10
59651;DHT22;45954;49.768;8.636;2023-07-22T08:31:20;21.60;96.40
59651;DHT22;45954;49.768;8.636;2023-07-22T08:33:46;21.50;96.50
59651;DHT22;45954;49.768;8.636;2023-07-22T08:36:12;21.60;96.30
59651;DHT22;45954;49.768;8.636;2023-07-22T08:38:37;21.60;96.80
59651;DHT22;45954;49.768;8.636;2023-07-22T08:41:03;21.70;96.70
59651;DHT22;45954;49.768;8.636;2023-07-22T08:43:30;21.70;96.80
59651;DHT22;45954;49.768;8.636;2023-07-22T08:46:00;21.90;96.40
59651;DHT22;45954;49.768;8.636;2023-07-22T08:48:30;22.00;96.40
59651;DHT22;45954;49.768;8.636;2023-07-22T08:51:07;22.00;96.20
59651;DHT22;45954;49.768;8.636;2023-07-22T08:53:36;22.30;95.70
59651;DHT22;45954;49.768;8.636;2023-07-22T08:56:03;22.30;95.60
59651;DHT22;45954;49.768;8.636;2023-07-22T08:58:30;22.30;95.20
59651;DHT22;45954;49.768;8.636;2023-07-22T09:00:56;22.40;95.00
59651;DHT22;45954;49.768;8.636;2023-07-22T09:03:24;22.50;94.60
59651;DHT22;45954;49.768;8.636;2023-07-22T09:05:50;22.60;94.20
59651;DHT22;45954;49.768;8.636;2023-07-22T09:08:17;22.40;93.60
59651;DHT22;45954;49.768;8.636;2023-07-22T09:10:43;22.40;94.10
59651;DHT22;45954;49.768;8.636;2023-07-22T09:13:11;22.70;93.90
59651;DHT22;45954;49.768;8.636;2023-07-22T09:15:37;22.80;93.50
59651;DHT22;45954;49.768;8.636;2023-07-22T09:18:04;23.10;93.20
59651;DHT22;45954;49.768;8.636;2023-07-22T09:20:30;23.10;92.80
59651;DHT22;45954;49.768;8.636;2023-07-22T09:23:00;23.20;93.00
59651;DHT22;45954;49.768;8.636;2023-07-22T09:25:28;23.30;92.10
59651;DHT22;45954;49.768;8.636;2023-07-22T09:27:59;23.20;91.40
59651;DHT22;45954;49.768;8.636;2023-07-22T09:30:29;23.20;91.80
59651;DHT22;45954;49.768;8.636;2023-07-22T09:32:59;23.30;92.00
59651;DHT22;45954;49.768;8.636;2023-07-22T09:35:28;23.50;92.30
59651;DHT22;45954;49.768;8.636;2023-07-22T09:37:55;23.40;91.40
59651;DHT22;45954;49.768;8.636;2023-07-22T09:40:26;23.40;91.20
59651;DHT22;45954;49.768;8.636;2023-07-22T09:42:54;23.30;90.20
59651;DHT22;45954;49.768;8.636;2023-07-22T09:45:24;23.50;90.60
59651;DHT22;45954;49.768;8.636;2023-07-22T09:47:54;23.50;90.70
59651;DHT22;45954;49.768;8.636;2023-07-22T09:50:25;23.60;90.50
59651;DHT22;45954;49.768;8.636;2023-07-22T09:52:59;23.50;90.40
59651;DHT22;45954;49.768;8.636;2023-07-22T09:55:28;23.50;90.50
59651;DHT22;45954;49.768;8.636;2023-07-22T09:57:57;23.40;90.60
59651;DHT22;45954;49.768;8.636;2023-07-22T10:00:25;23.70;91.00
59651;DHT22;45954;49.768;8.636;2023-07-22T10:02:57;23.80;90.40
59651;DHT22;45954;49.768;8.636;2023-07-22T10:05:25;24.00;90.90
59651;DHT22;45954;49.768;8.636;2023-07-22T10:07:54;24.30;90.30
59651;DHT22;45954;49.768;8.636;2023-07-22T10:10:27;24.60;88.70
59651;DHT22;45954;49.768;8.636;2023-07-22T10:12:56;24.60;88.50
59651;DHT22;45954;49.768;8.636;2023-07-22T10:15:27;24.00;87.10
59651;DHT22;45954;49.768;8.636;2023-07-22T10:17:56;23.70;87.60
59651;DHT22;45954;49.768;8.636;2023-07-22T10:20:23;23.50;88.70
59651;DHT22;45954;49.768;8.636;2023-07-22T10:22:51;23.70;88.50
59651;DHT22;45954;49.768;8.636;2023-07-22T10:25:19;23.70;88.50
59651;DHT22;45954;49.768;8.636;2023-07-22T10:27:48;23.50;89.40
59651;DHT22;45954;49.768;8.636;2023-07-22T10:30:17;23.70;88.70
59651;DHT22;45954;49.768;8.636;2023-07-22T10:32:48;23.70;89.50
59651;DHT22;45954;49.768;8.636;2023-07-22T10:35:40;23.80;89.70
59651;DHT22;45954;49.768;8.636;2023-07-22T10:38:15;23.90;90.00
59651;DHT22;45954;49.768;8.636;2023-07-22T10:43:33;23.90;88.50
59651;DHT22;45954;49.768;8.636;2023-07-22T10:46:06;23.80;88.20
59651;DHT22;45954;49.768;8.636;2023-07-22T10:48:36;23.80;88.40
59651;DHT22;45954;49.768;8.636;2023-07-22T10:51:11;23.50;89.10
59651;DHT22;45954;49.768;8.636;2023-07-22T10:53:44;23.30;89.40
59651;DHT22;45954;49.768;8.636;2023-07-22T10:56:20;23.20;90.20
59651;DHT22;45954;49.768;8.636;2023-07-22T11:12:08;23.80;86.70
59651;DHT22;45954;49.768;8.636;2023-07-22T11:14:44;23.20;87.20
59651;DHT22;45954;49.768;8.636;2023-07-22T11:17:11;23.20;88.90
59651;DHT22;45954;49.768;8.636;2023-07-22T11:19:37;23.40;88.40
59651;DHT22;45954;49.768;8.636;2023-07-22T11:22:04;23.50;88.70
59651;DHT22;45954;49.768;8.636;2023-07-22T11:24:33;23.30;88.00
59651;DHT22;45954;49.768;8.636;2023-07-22T11:27:07;23.40;88.10
59651;DHT22;45954;49.768;8.636;2023-07-22T11:29:35;23.60;88.00
59651;DHT22;45954;49.768;8.636;2023-07-22T11:32:02;24.30;87.60
59651;DHT22;45954;49.768;8.636;2023-07-22T11:34:29;24.10;87.30
59651;DHT22;45954;49.768;8.636;2023-07-22T11:36:56;23.90;86.80
59651;DHT22;45954;49.768;8.636;2023-07-22T11:39:24;23.90;88.20
59651;DHT22;45954;49.768;8.636;2023-07-22T11:41:52;23.90;88.60
59651;DHT22;45954;49.768;8.636;2023-07-22T11:44:21;24.00;87.50
59651;DHT22;45954;49.768;8.636;2023-07-22T11:49:34;24.20;87.80
59651;DHT22;45954;49.768;8.636;2023-07-22T11:52:05;24.30;87.90
59651;DHT22;45954;49.768;8.636;2023-07-22T11:54:39;24.80;87.60
59651;DHT22;45954;49.768;8.636;2023-07-22T11:57:14;25.20;87.20
59651;DHT22;45954;49.768;8.636;2023-07-22T11:59:45;25.40;84.80
59651;DHT22;45954;49.768;8.636;2023-07-22T12:02:17;24.90;84.80
59651;DHT22;45954;49.768;8.636;2023-07-22T12:07:38;25.80;83.30
59651;DHT22;45954;49.768;8.636;2023-07-22T12:10:07;25.70;84.70
59651;DHT22;45954;49.768;8.636;2023-07-22T12:12:41;25.70;85.10
59651;DHT22;45954;49.768;8.636;2023-07-22T12:15:16;25.90;85.20
59651;DHT22;45954;49.768;8.636;2023-07-22T12:18:01;26.20;85.50
59651;DHT22;45954;49.768;8.636;2023-07-22T12:20:31;26.30;83.30
59651;DHT22;45954;49.768;8.636;2023-07-22T12:22:59;26.40;82.20
59651;DHT22;45954;49.768;8.636;2023-07-22T12:25:26;25.90;82.40
59651;DHT22;45954;49.768;8.636;2023-07-22T12:27:52;26.10;82.60
59651;DHT22;45954;49.768;8.636;2023-07-22T12:30:19;25.80;81.40
59651;DHT22;45954;49.768;8.636;2023-07-22T12:32:45;25.90;81.90
59651;DHT22;45954;49.768;8.636;2023-07-22T12:35:12;25.60;82.00
59651;DHT22;45954;49.768;8.636;2023-07-22T12:37:39;25.70;80.70
59651;DHT22;45954;49.768;8.636;2023-07-22T12:40:05;25.70;80.10
59651;DHT22;45954;49.768;8.636;2023-07-22T12:42:34;25.70;80.10
59651;DHT22;45954;49.768;8.636;2023-07-22T12:45:02;25.80;80.30
59651;DHT22;45954;49.768;8.636;2023-07-22T12:47:29;25.70;79.60
59651;DHT22;45954;49.768;8.636;2023-07-22T12:49:55;25.50;79.00
59651;DHT22;45954;49.768;8.636;2023-07-22T12:52:21;25.40;79.00
59651;DHT22;45954;49.768;8.636;2023-07-22T12:54:47;25.70;79.60
59651;DHT22;45954;49.768;8.636;2023-07-22T12:57:12;25.60;78.30
59651;DHT22;45954;49.768;8.636;2023-07-22T12:59:38;25.60;76.80
59651;DHT22;45954;49.768;8.636;2023-07-22T13:02:06;25.50;77.00
59651;DHT22;45954;49.768;8.636;2023-07-22T13:04:32;25.70;76.40
59651;DHT22;45954;49.768;8.636;2023-07-22T13:06:58;25.90;76.10
59651;DHT22;45954;49.768;8.636;2023-07-22T13:09:24;26.70;76.70
59651;DHT22;45954;49.768;8.636;2023-07-22T13:11:50;26.50;74.70
59651;DHT22;45954;49.768;8.636;2023-07-22T13:14:15;26.80;74.40
59651;DHT22;45954;49.768;8.636;2023-07-22T13:16:43;26.80;75.00
59651;DHT22;45954;49.768;8.636;2023-07-22T13:19:09;26.30;75.20
59651;DHT22;45954;49.768;8.636;2023-07-22T13:21:35;26.40;75.80
59651;DHT22;45954;49.768;8.636;2023-07-22T13:24:01;26.10;74.90
59651;DHT22;45954;49.768;8.636;2023-07-22T13:26:27;26.10;75.00
59651;DHT22;45954;49.768;8.636;2023-07-22T13:28:53;26.20;75.60
59651;DHT22;45954;49.768;8.636;2023-07-22T13:31:19;26.20;75.10
59651;DHT22;45954;49.768;8.636;2023-07-22T13:33:45;26.30;74.60
59651;DHT22;45954;49.768;8.636;2023-07-22T13:36:11;27.00;74.30
59651;DHT22;45954;49.768;8.636;2023-07-22T13:38:37;27.70;72.60
59651;DHT22;45954;49.768;8.636;2023-07-22T13:41:03;27.00;72.50
59651;DHT22;45954;49.768;8.636;2023-07-22T13:43:29;26.90;73.80
59651;DHT22;45954;49.768;8.636;2023-07-22T13:45:55;27.00;73.30
59651;DHT22;45954;49.768;8.636;2023-07-22T13:48:20;27.00;72.20
59651;DHT22;45954;49.768;8.636;2023-07-22T13:50:46;26.90;73.50
59651;DHT22;45954;49.768;8.636;2023-07-22T13:53:12;27.20;73.10
59651;DHT22;45954;49.768;8.636;2023-07-22T13:55:38;26.70;72.40
59651;DHT22;45954;49.768;8.636;2023-07-22T13:58:04;26.40;72.90
59651;DHT22;45954;49.768;8.636;2023-07-22T14:00:30;27.30;72.40
59651;DHT22;45954;49.768;8.636;2023-07-22T14:02:55;27.60;73.30
59651;DHT22;45954;49.768;8.636;2023-07-22T14:05:22;27.90;72.80
59651;DHT22;45954;49.768;8.636;2023-07-22T14:07:48;27.80;72.50
59651;DHT22;45954;49.768;8.636;2023-07-22T14:10:14;28.80;73.40
59651;DHT22;45954;49.768;8.636;2023-07-22T14:12:40;28.30;68.70
59651;DHT22;45954;49.768;8.636;2023-07-22T14:15:06;27.30;70.10
59651;DHT22;45954;49.768;8.636;2023-07-22T14:17:33;27.10;70.70
59651;DHT22;45954;49.768;8.636;2023-07-22T14:19:59;26.80;71.20
59651;DHT22;45954;49.768;8.636;2023-07-22T14:22:25;26.80;72.20
59651;DHT22;45954;49.768;8.636;2023-07-22T14:24:51;26.90;71.40
59651;DHT22;45954;49.768;8.636;2023-07-22T14:27:16;26.90;71.60
59651;DHT22;45954;49.768;8.636;2023-07-22T14:29:42;26.30;70.40
59651;DHT22;45954;49.768;8.636;2023-07-22T14:32:08;25.90;71.50
59651;DHT22;45954;49.768;8.636;2023-07-22T14:34:34;26.50;71.30
59651;DHT22;45954;49.768;8.636;2023-07-22T14:37:00;26.90;70.70
59651;DHT22;45954;49.768;8.636;2023-07-22T14:39:26;27.60;71.50
59651;DHT22;45954;49.768;8.636;2023-07-22T14:41:52;28.10;70.20
59651;DHT22;45954;49.768;8.636;2023-07-22T14:44:19;26.80;70.50
59651;DHT22;45954;49.768;8.636;2023-07-22T14:46:45;26.30;70.70
59651;DHT22;45954;49.768;8.636;2023-07-22T14:49:11;26.50;71.30
59651;DHT22;45954;49.768;8.636;2023-07-22T14:51:37;27.10;72.00
59651;DHT22;45954;49.768;8.636;2023-07-22T14:54:03;27.80;70.00
59651;DHT22;45954;49.768;8.636;2023-07-22T14:56:29;28.00;69.90
59651;DHT22;45954;49.768;8.636;2023-07-22T14:58:55;27.60;70.10
59651;DHT22;45954;49.768;8.636;2023-07-22T15:01:21;26.90;70.90
59651;DHT22;45954;49.768;8.636;2023-07-22T15:03:48;28.10;71.20
59651;DHT22;45954;49.768;8.636;2023-07-22T15:06:14;28.50;67.90
59651;DHT22;45954;49.768;8.636;2023-07-22T15:08:39;28.40;67.50
59651;DHT22;45954;49.768;8.636;2023-07-22T15:11:06;28.30;66.70
59651;DHT22;45954;49.768;8.636;2023-07-22T15:13:33;28.60;67.90
59651;DHT22;45954;49.768;8.636;2023-07-22T15:15:59;28.50;67.10
59651;DHT22;45954;49.768;8.636;2023-07-22T15:18:25;28.40;67.20
59651;DHT22;45954;49.768;8.636;2023-07-22T15:20:51;28.50;66.80
59651;DHT22;45954;49.768;8.636;2023-07-22T15:23:18;28.70;66.30
59651;DHT22;45954;49.768;8.636;2023-07-22T15:25:44;28.30;66.60
59651;DHT22;45954;49.768;8.636;2023-07-22T15:28:10;28.80;66.80
59651;DHT22;45954;49.768;8.636;2023-07-22T15:30:36;29.70;65.40
59651;DHT22;45954;49.768;8.636;2023-07-22T15:33:02;28.60;65.80
59651;DHT22;45954;49.768;8.636;2023-07-22T15:35:28;28.60;66.10
59651;DHT22;45954;49.768;8.636;2023-07-22T15:37:54;28.70;66.10
59651;DHT22;45954;49.768;8.636;2023-07-22T15:40:20;29.50;65.80
59651;DHT22;45954;49.768;8.636;2023-07-22T15:42:46;28.60;65.30
59651;DHT22;45954;49.768;8.636;2023-07-22T15:45:12;28.00;66.10
59651;DHT22;45954;49.768;8.636;2023-07-22T15:47:38;28.50;65.40
59651;DHT22;45954;49.768;8.636;2023-07-22T15:50:04;28.80;65.00
59651;DHT22;45954;49.768;8.636;2023-07-22T15:52:30;28.90;64.80